createdAt,value
2023-05-19T00:00:21.620Z,10.36
2023-05-19T00:02:25.953Z,10.29
2023-05-19T00:04:28.069Z,10.32
2023-05-19T00:06:31.756Z,10.37
2023-05-19T00:08:34.427Z,10.31
2023-05-19T00:10:36.158Z,10.27
2023-05-19T00:12:38.616Z,10.30
2023-05-19T00:14:40.558Z,10.21
2023-05-19T00:16:42.754Z,10.21
2023-05-19T00:18:44.479Z,10.27
2023-05-19T00:20:46.526Z,10.28
2023-05-19T00:22:48.404Z,10.29
2023-05-19T00:24:50.075Z,10.12
2023-05-19T00:26:51.657Z,10.12
2023-05-19T00:28:54.073Z,10.18
2023-05-19T00:30:57.087Z,10.10
2023-05-19T00:32:59.138Z,10.10
2023-05-19T00:35:00.903Z,10.13
2023-05-19T00:37:02.697Z,10.19
2023-05-19T00:39:04.586Z,10.10
2023-05-19T00:41:07.361Z,10.14
2023-05-19T00:43:09.028Z,10.16
2023-05-19T00:45:11.178Z,10.19
2023-05-19T00:47:13.477Z,10.09
2023-05-19T00:49:15.375Z,10.05
2023-05-19T00:51:17.695Z,10.04
2023-05-19T00:53:19.629Z,10.02
2023-05-19T00:55:28.113Z,10.03
2023-05-19T00:57:30.556Z,10.10
2023-05-19T00:59:32.269Z,10.02
2023-05-19T01:01:34.758Z,9.92
2023-05-19T01:03:37.104Z,9.99
2023-05-19T01:05:42.307Z,9.92
2023-05-19T01:07:44.655Z,9.87
2023-05-19T01:09:47.141Z,9.93
2023-05-19T01:11:49.338Z,9.97
2023-05-19T01:13:51.173Z,9.93
2023-05-19T01:16:32.050Z,9.93
2023-05-19T01:18:50.937Z,9.93
2023-05-19T01:21:05.830Z,9.92
2023-05-19T01:23:23.852Z,9.95
2023-05-19T01:25:50.658Z,10.02
2023-05-19T01:28:17.858Z,9.97
2023-05-19T01:30:31.409Z,9.91
2023-05-19T01:32:34.565Z,9.85
2023-05-19T01:34:44.278Z,9.90
2023-05-19T01:36:49.712Z,9.91
2023-05-19T01:38:54.007Z,9.85
2023-05-19T01:40:57.906Z,9.83
2023-05-19T01:43:01.506Z,9.90
2023-05-19T01:45:10.588Z,9.87
2023-05-19T01:47:12.889Z,9.62
2023-05-19T01:49:14.698Z,9.63
2023-05-19T01:51:17.006Z,9.59
2023-05-19T01:53:18.872Z,9.63
2023-05-19T01:55:23.272Z,9.64
2023-05-19T01:57:33.557Z,9.63
2023-05-19T01:59:53.848Z,9.57
2023-05-19T02:02:02.315Z,9.50
2023-05-19T02:04:27.337Z,9.55
2023-05-19T02:06:39.931Z,9.53
2023-05-19T02:08:49.447Z,9.55
2023-05-19T02:10:57.662Z,9.51
2023-05-19T02:13:04.531Z,9.51
2023-05-19T02:15:24.375Z,9.47
2023-05-19T02:17:29.277Z,9.51
2023-05-19T02:19:38.405Z,9.55
2023-05-19T02:21:40.075Z,9.56
2023-05-19T02:23:42.010Z,9.58
2023-05-19T02:25:44.327Z,9.52
2023-05-19T02:27:46.402Z,9.51
2023-05-19T02:29:48.090Z,9.49
2023-05-19T02:31:49.784Z,9.50
2023-05-19T02:33:51.418Z,9.49
2023-05-19T02:35:53.328Z,9.53
2023-05-19T02:37:55.035Z,9.47
2023-05-19T02:39:56.741Z,9.51
2023-05-19T02:41:58.582Z,9.52
2023-05-19T02:44:00.297Z,9.44
2023-05-19T02:46:01.972Z,9.39
2023-05-19T02:48:04.054Z,9.42
2023-05-19T02:50:06.359Z,9.41
2023-05-19T02:52:07.948Z,9.40
2023-05-19T02:54:09.826Z,9.33
2023-05-19T02:56:11.480Z,9.31
2023-05-19T02:58:13.083Z,9.24
2023-05-19T03:00:15.662Z,9.21
2023-05-19T03:02:18.235Z,9.15
2023-05-19T03:04:20.072Z,9.10
2023-05-19T03:06:23.325Z,9.08
2023-05-19T03:08:24.916Z,9.02
2023-05-19T03:10:26.573Z,8.98
2023-05-19T03:12:28.249Z,8.95
2023-05-19T03:14:30.553Z,8.91
2023-05-19T03:16:32.471Z,8.79
2023-05-19T03:18:34.916Z,8.78
2023-05-19T03:20:36.683Z,8.78
2023-05-19T03:22:38.650Z,8.85
2023-05-19T03:24:40.229Z,8.87
2023-05-19T03:26:42.743Z,8.86
2023-05-19T03:28:44.831Z,8.85
2023-05-19T03:30:46.492Z,8.79
2023-05-19T03:32:53.240Z,8.70
2023-05-19T03:34:54.961Z,8.67
2023-05-19T03:36:57.076Z,8.65
2023-05-19T03:38:59.215Z,8.61
2023-05-19T03:41:01.105Z,8.52
2023-05-19T03:43:02.823Z,8.61
2023-05-19T03:45:05.466Z,8.68
2023-05-19T03:47:07.411Z,8.68
2023-05-19T03:49:29.303Z,8.69
2023-05-19T03:51:49.518Z,8.69
2023-05-19T03:54:01.784Z,8.70
2023-05-19T03:56:03.588Z,8.68
2023-05-19T03:58:05.271Z,8.69
2023-05-19T04:00:08.225Z,8.72
2023-05-19T04:02:13.976Z,8.75
2023-05-19T04:04:16.192Z,8.83
2023-05-19T04:06:19.988Z,8.85
2023-05-19T04:08:21.684Z,8.90
2023-05-19T04:10:23.719Z,8.91
2023-05-19T04:12:25.462Z,8.99
2023-05-19T04:14:27.710Z,9.03
2023-05-19T04:16:29.514Z,9.08
2023-05-19T04:18:31.534Z,9.15
2023-05-19T04:20:33.541Z,9.20
2023-05-19T04:22:35.488Z,9.24
2023-05-19T04:24:37.176Z,9.28
2023-05-19T04:26:41.735Z,9.27
2023-05-19T04:28:44.650Z,9.32
2023-05-19T04:30:46.800Z,9.38
2023-05-19T04:32:52.121Z,9.40
2023-05-19T04:34:53.832Z,9.43
2023-05-19T04:36:59.822Z,9.51
2023-05-19T04:39:07.866Z,9.57
2023-05-19T04:41:10.891Z,9.60
2023-05-19T04:43:12.911Z,9.65
2023-05-19T04:45:15.472Z,9.70
2023-05-19T04:47:21.540Z,9.77
2023-05-19T04:49:28.533Z,9.88
2023-05-19T04:51:31.496Z,10.00
2023-05-19T04:53:37.432Z,10.07
2023-05-19T04:55:42.520Z,10.11
2023-05-19T04:57:44.172Z,10.14
2023-05-19T04:59:46.325Z,10.19
2023-05-19T05:01:48.032Z,10.26
2023-05-19T05:03:51.257Z,10.38
2023-05-19T05:05:53.005Z,10.50
2023-05-19T05:07:54.899Z,10.62
2023-05-19T05:09:58.158Z,10.71
2023-05-19T05:12:01.524Z,10.78
2023-05-19T05:14:04.004Z,10.88
2023-05-19T05:16:06.423Z,10.96
2023-05-19T05:18:08.652Z,11.08
2023-05-19T05:20:12.614Z,11.16
2023-05-19T05:22:14.561Z,11.29
2023-05-19T05:24:17.437Z,11.34
2023-05-19T05:26:30.317Z,11.48
2023-05-19T05:28:32.471Z,11.58
2023-05-19T05:30:35.086Z,11.69
2023-05-19T05:32:37.120Z,11.73
2023-05-19T05:34:45.115Z,11.75
2023-05-19T05:36:47.286Z,11.79
2023-05-19T05:38:49.529Z,11.82
2023-05-19T05:40:51.255Z,11.80
2023-05-19T05:42:52.925Z,11.84
2023-05-19T05:44:56.060Z,11.97
2023-05-19T05:46:58.540Z,12.07
2023-05-19T05:49:00.524Z,12.16
2023-05-19T05:51:02.386Z,12.23
2023-05-19T05:53:07.571Z,12.29
2023-05-19T05:55:13.029Z,12.34
2023-05-19T05:57:15.103Z,12.39
2023-05-19T05:59:17.728Z,12.54
2023-05-19T06:01:20.872Z,12.63
2023-05-19T06:03:24.588Z,12.69
2023-05-19T06:05:26.950Z,12.81
2023-05-19T06:07:29.337Z,12.85
2023-05-19T06:09:31.130Z,12.90
2023-05-19T06:11:33.057Z,12.93
2023-05-19T06:13:39.119Z,12.98
2023-05-19T06:15:43.668Z,13.11
2023-05-19T06:17:52.337Z,13.23
2023-05-19T06:19:54.338Z,13.27
2023-05-19T06:21:56.025Z,13.35
2023-05-19T06:23:57.773Z,13.48
2023-05-19T06:25:59.699Z,13.49
2023-05-19T06:28:01.900Z,13.56
2023-05-19T06:30:04.022Z,13.56
2023-05-19T06:32:11.366Z,13.52
2023-05-19T06:34:17.573Z,13.58
2023-05-19T06:36:21.337Z,13.73
2023-05-19T06:38:23.776Z,13.88
2023-05-19T06:40:25.636Z,13.95
2023-05-19T06:42:29.217Z,14.01
2023-05-19T06:44:39.785Z,14.03
2023-05-19T06:46:46.290Z,14.12
2023-05-19T06:48:48.284Z,14.21
2023-05-19T06:50:52.073Z,14.30
2023-05-19T06:52:54.312Z,14.38
2023-05-19T06:54:55.914Z,14.44
2023-05-19T06:56:57.699Z,14.48
2023-05-19T06:58:59.526Z,14.59
2023-05-19T07:01:06.682Z,14.71
2023-05-19T07:03:14.587Z,14.77
2023-05-19T07:05:16.279Z,14.89
2023-05-19T07:07:21.478Z,15.01
2023-05-19T07:09:23.318Z,14.95
2023-05-19T07:11:26.200Z,14.94
2023-05-19T07:13:28.467Z,14.92
2023-05-19T07:15:31.244Z,14.67
2023-05-19T07:17:33.828Z,14.66
2023-05-19T07:19:35.507Z,14.62
2023-05-19T07:21:37.323Z,14.64
2023-05-19T07:23:39.596Z,14.90
2023-05-19T07:25:41.560Z,15.23
2023-05-19T07:27:43.112Z,15.49
2023-05-19T07:29:45.996Z,15.74
2023-05-19T07:31:48.006Z,15.91
2023-05-19T07:33:50.348Z,16.21
2023-05-19T07:35:53.519Z,16.47
2023-05-19T07:37:55.067Z,16.38
2023-05-19T07:39:56.773Z,16.46
2023-05-19T07:41:59.186Z,16.25
2023-05-19T07:44:00.988Z,16.30
2023-05-19T07:46:02.761Z,16.23
2023-05-19T07:48:04.514Z,16.14
2023-05-19T07:50:06.757Z,16.05
2023-05-19T07:52:08.968Z,15.94
2023-05-19T07:54:10.858Z,15.98
2023-05-19T07:56:12.949Z,16.22
2023-05-19T07:58:15.831Z,16.22
2023-05-19T08:00:18.033Z,16.13
2023-05-19T08:02:19.571Z,15.91
2023-05-19T08:04:21.682Z,15.97
2023-05-19T08:06:25.122Z,16.06
2023-05-19T08:08:26.805Z,15.73
2023-05-19T08:10:29.050Z,15.77
2023-05-19T08:12:30.731Z,16.13
2023-05-19T08:14:33.311Z,16.21
2023-05-19T08:16:34.858Z,16.47
2023-05-19T08:18:36.446Z,16.64
2023-05-19T08:20:38.447Z,16.56
2023-05-19T08:22:40.329Z,16.78
2023-05-19T08:24:43.173Z,16.46
2023-05-19T08:26:44.736Z,16.51
2023-05-19T08:28:46.753Z,16.43
2023-05-19T08:30:50.760Z,16.75
2023-05-19T08:32:52.590Z,17.08
2023-05-19T08:34:54.425Z,17.32
2023-05-19T08:36:57.735Z,17.58
2023-05-19T08:38:59.368Z,17.79
2023-05-19T08:41:01.744Z,18.16
2023-05-19T08:43:03.628Z,18.34
2023-05-19T08:45:06.120Z,18.39
2023-05-19T08:47:12.765Z,18.34
2023-05-19T08:49:16.718Z,18.23
2023-05-19T08:51:33.534Z,18.42
2023-05-19T08:53:38.060Z,18.49
2023-05-19T08:56:04.606Z,18.61
2023-05-19T08:58:07.747Z,18.78
2023-05-19T09:00:12.084Z,19.09
2023-05-19T09:02:14.380Z,19.50
2023-05-19T09:04:17.302Z,19.74
2023-05-19T09:06:19.115Z,19.81
2023-05-19T09:08:20.841Z,19.89
2023-05-19T09:10:22.806Z,19.80
2023-05-19T09:12:24.681Z,19.82
2023-05-19T09:14:26.682Z,19.74
2023-05-19T09:16:30.171Z,19.67
2023-05-19T09:18:32.209Z,19.41
2023-05-19T09:20:38.436Z,19.68
2023-05-19T09:22:47.553Z,19.97
2023-05-19T09:24:49.565Z,20.07
2023-05-19T09:26:51.646Z,20.07
2023-05-19T09:28:58.166Z,20.28
2023-05-19T09:31:08.203Z,20.18
2023-05-19T09:33:10.138Z,20.18
2023-05-19T09:35:13.468Z,20.04
2023-05-19T09:37:16.606Z,19.65
2023-05-19T09:39:20.870Z,19.72
2023-05-19T09:41:23.487Z,19.85
2023-05-19T09:43:29.781Z,20.00
2023-05-19T09:45:31.659Z,20.06
2023-05-19T09:47:41.313Z,20.27
2023-05-19T09:49:47.315Z,20.18
2023-05-19T09:51:51.140Z,20.56
2023-05-19T09:53:53.463Z,20.83
2023-05-19T09:55:57.588Z,20.78
2023-05-19T09:58:04.209Z,20.87
2023-05-19T10:00:17.999Z,21.17
2023-05-19T10:02:21.685Z,21.14
2023-05-19T10:04:26.917Z,20.96
2023-05-19T10:06:29.769Z,20.91
2023-05-19T10:08:33.554Z,21.10
2023-05-19T10:10:35.451Z,21.30
2023-05-19T10:12:39.533Z,21.47
2023-05-19T10:14:41.533Z,21.34
2023-05-19T10:16:44.006Z,21.63
2023-05-19T10:18:51.576Z,21.49
2023-05-19T10:20:54.385Z,21.56
2023-05-19T10:22:56.297Z,21.48
2023-05-19T10:24:58.040Z,21.25
2023-05-19T10:27:05.210Z,19.96
2023-05-19T10:29:08.323Z,20.19
2023-05-19T10:31:15.426Z,20.73
2023-05-19T10:33:19.970Z,21.10
2023-05-19T10:35:56.037Z,21.61
2023-05-19T10:38:22.222Z,22.13
2023-05-19T10:40:36.850Z,22.27
2023-05-19T10:42:53.646Z,22.69
2023-05-19T10:45:09.180Z,22.96
2023-05-19T10:47:12.129Z,23.37
2023-05-19T10:49:21.811Z,23.40
2023-05-19T10:51:34.574Z,23.87
2023-05-19T10:53:46.367Z,24.29
2023-05-19T10:55:52.639Z,24.56
2023-05-19T10:57:56.695Z,24.21
2023-05-19T11:00:00.816Z,23.33
2023-05-19T11:02:04.773Z,23.82
2023-05-19T11:04:15.735Z,24.45
2023-05-19T11:06:29.082Z,25.15
2023-05-19T11:08:34.860Z,24.84
2023-05-19T11:10:36.620Z,24.80
2023-05-19T11:12:46.092Z,24.91
2023-05-19T11:14:48.533Z,24.03
2023-05-19T11:16:52.373Z,24.72
2023-05-19T11:18:56.405Z,24.13
2023-05-19T11:21:02.264Z,23.69
2023-05-19T11:23:05.945Z,23.64
2023-05-19T11:25:08.952Z,24.08
2023-05-19T11:27:32.800Z,22.99
2023-05-19T11:29:35.026Z,23.25
2023-05-19T11:31:37.715Z,23.75
2023-05-19T11:33:39.917Z,24.17
2023-05-19T11:35:42.686Z,24.88
2023-05-19T11:37:46.070Z,25.12
2023-05-19T11:39:48.045Z,24.66
2023-05-19T11:41:51.371Z,24.26
2023-05-19T11:43:53.284Z,24.00
2023-05-19T11:45:55.974Z,24.40
2023-05-19T11:48:02.660Z,24.59
2023-05-19T11:50:05.433Z,24.05
2023-05-19T11:52:07.619Z,24.08
2023-05-19T11:54:11.597Z,24.73
2023-05-19T11:56:15.114Z,24.45
2023-05-19T11:58:17.330Z,24.77
2023-05-19T12:00:23.037Z,25.01
2023-05-19T12:02:26.092Z,25.48
2023-05-19T12:04:27.858Z,25.95
2023-05-19T12:06:29.987Z,25.81
2023-05-19T12:08:31.945Z,25.11
2023-05-19T12:10:34.608Z,25.08
2023-05-19T12:12:36.555Z,24.76
2023-05-19T12:14:38.182Z,23.32
2023-05-19T12:16:39.998Z,22.81
2023-05-19T12:18:42.281Z,22.38
2023-05-19T12:20:44.387Z,22.93
2023-05-19T12:22:48.000Z,23.11
2023-05-19T12:24:50.925Z,23.23
2023-05-19T12:26:52.765Z,23.21
2023-05-19T12:28:54.921Z,23.06
2023-05-19T12:30:58.348Z,22.95
2023-05-19T12:33:01.646Z,22.68
2023-05-19T12:35:06.264Z,23.00
2023-05-19T12:37:08.200Z,22.74
2023-05-19T12:39:11.115Z,21.73
2023-05-19T12:41:12.956Z,21.19
2023-05-19T12:43:22.430Z,21.53
2023-05-19T12:45:26.258Z,21.91
2023-05-19T12:47:33.410Z,22.05
2023-05-19T12:49:35.175Z,22.21
2023-05-19T12:51:36.977Z,22.59
2023-05-19T12:53:38.699Z,22.70
2023-05-19T12:55:44.443Z,22.98
2023-05-19T12:57:51.792Z,23.47
2023-05-19T12:59:53.802Z,23.76
2023-05-19T13:01:59.095Z,23.95
2023-05-19T13:04:02.138Z,24.10
2023-05-19T13:06:05.756Z,24.16
2023-05-19T13:08:13.004Z,24.35
2023-05-19T13:10:14.886Z,24.36
2023-05-19T13:12:16.805Z,24.55
2023-05-19T13:14:18.731Z,24.89
2023-05-19T13:16:20.550Z,25.09
2023-05-19T13:18:22.335Z,24.45
2023-05-19T13:20:26.258Z,24.78
2023-05-19T13:22:29.407Z,24.76
2023-05-19T13:24:31.084Z,25.09
2023-05-19T13:26:32.765Z,25.45
2023-05-19T13:28:34.842Z,25.68
2023-05-19T13:30:38.944Z,25.68
2023-05-19T13:32:40.897Z,25.67
2023-05-19T13:34:42.511Z,25.73
2023-05-19T13:36:47.941Z,25.54
2023-05-19T13:38:49.859Z,25.56
2023-05-19T13:40:51.645Z,25.45
2023-05-19T13:42:54.867Z,25.13
2023-05-19T13:44:56.653Z,24.81
2023-05-19T13:46:58.401Z,24.66
2023-05-19T13:49:00.210Z,24.44
2023-05-19T13:51:02.235Z,23.91
2023-05-19T13:53:04.062Z,23.64
2023-05-19T13:55:06.934Z,23.76
2023-05-19T13:57:08.783Z,23.51
2023-05-19T13:59:10.588Z,23.09
2023-05-19T14:01:12.945Z,23.08
2023-05-19T14:03:16.098Z,23.38
2023-05-19T14:05:18.019Z,23.75
2023-05-19T14:07:20.101Z,24.11
2023-05-19T14:09:22.011Z,24.23
2023-05-19T14:11:23.675Z,24.06
2023-05-19T14:13:32.974Z,24.20
2023-05-19T14:15:38.446Z,23.82
2023-05-19T14:17:40.560Z,23.90
2023-05-19T14:19:42.320Z,23.97
2023-05-19T14:21:44.348Z,24.14
2023-05-19T14:23:46.336Z,24.28
2023-05-19T14:25:48.214Z,24.51
2023-05-19T14:27:50.523Z,24.79
2023-05-19T14:29:52.329Z,24.48
2023-05-19T14:31:54.311Z,23.70
2023-05-19T14:33:56.498Z,22.98
2023-05-19T14:36:01.544Z,23.18
2023-05-19T14:40:37.074Z,24.01
2023-05-19T14:42:38.840Z,24.20
2023-05-19T14:44:40.549Z,24.34
2023-05-19T14:46:42.247Z,24.75
2023-05-19T14:48:43.943Z,25.20
2023-05-19T14:50:48.162Z,25.44
2023-05-19T14:52:50.004Z,25.77
2023-05-19T14:54:51.599Z,26.24
2023-05-19T14:56:53.305Z,26.67
2023-05-19T14:58:55.089Z,27.05
2023-05-19T15:00:59.954Z,26.90
2023-05-19T15:03:01.791Z,27.14
2023-05-19T15:05:03.846Z,27.28
2023-05-19T15:07:10.328Z,26.85
2023-05-19T15:09:14.733Z,26.79
2023-05-19T15:11:16.442Z,27.08
2023-05-19T15:13:18.938Z,26.85
2023-05-19T15:15:20.796Z,27.20
2023-05-19T15:17:22.522Z,27.56
2023-05-19T15:19:24.316Z,27.49
2023-05-19T15:21:26.088Z,27.54
2023-05-19T15:23:28.270Z,27.55
2023-05-19T15:25:30.031Z,27.87
2023-05-19T15:27:31.827Z,27.76
2023-05-19T15:29:33.656Z,27.42
2023-05-19T15:31:38.015Z,26.87
2023-05-19T15:33:40.061Z,26.99
2023-05-19T15:35:41.812Z,27.07
2023-05-19T15:37:43.773Z,26.82
2023-05-19T15:39:45.572Z,26.47
2023-05-19T15:41:47.399Z,25.88
2023-05-19T15:43:49.023Z,25.61
2023-05-19T15:45:54.760Z,25.26
2023-05-19T15:47:56.553Z,24.93
2023-05-19T15:49:58.422Z,24.77
2023-05-19T15:52:00.319Z,24.62
2023-05-19T15:54:02.075Z,24.44
2023-05-19T15:56:04.917Z,24.14
2023-05-19T15:58:07.912Z,23.90
2023-05-19T16:00:11.430Z,23.66
2023-05-19T16:02:13.226Z,23.54
2023-05-19T16:04:15.267Z,23.47
2023-05-19T16:06:17.964Z,23.18
2023-05-19T16:08:19.848Z,23.09
2023-05-19T16:10:21.491Z,22.96
2023-05-19T16:12:24.142Z,22.72
2023-05-19T16:14:29.397Z,22.39
2023-05-19T16:16:31.799Z,22.33
2023-05-19T16:18:33.508Z,22.21
2023-05-19T16:20:35.423Z,22.18
2023-05-19T16:22:37.236Z,22.18
2023-05-19T16:24:38.951Z,22.16
2023-05-19T16:26:40.723Z,22.02
2023-05-19T16:28:42.405Z,21.90
2023-05-19T16:30:44.212Z,21.84
2023-05-19T16:32:46.687Z,21.83
2023-05-19T16:34:48.447Z,21.92
2023-05-19T16:36:50.290Z,21.87
2023-05-19T16:38:52.036Z,21.91
2023-05-19T16:40:53.734Z,21.92
2023-05-19T16:42:55.430Z,21.85
2023-05-19T16:44:57.257Z,21.73
2023-05-19T16:46:58.926Z,21.62
2023-05-19T16:49:01.651Z,21.55
2023-05-19T16:51:03.580Z,21.53
2023-05-19T16:53:05.297Z,21.47
2023-05-19T16:55:07.346Z,21.19
2023-05-19T16:57:09.741Z,21.02
2023-05-19T16:59:11.412Z,21.05
2023-05-19T17:01:13.239Z,20.94
2023-05-19T17:03:15.105Z,20.85
2023-05-19T17:05:16.919Z,20.79
2023-05-19T17:07:18.666Z,20.67
2023-05-19T17:09:25.010Z,20.48
2023-05-19T17:11:27.427Z,20.42
2023-05-19T17:13:33.481Z,20.43
2023-05-19T17:15:35.312Z,20.08
2023-05-19T17:17:37.310Z,19.98
2023-05-19T17:19:38.973Z,19.92
2023-05-19T17:21:40.771Z,19.96
2023-05-19T17:23:42.497Z,19.89
2023-05-19T17:25:44.210Z,19.72
2023-05-19T17:27:45.944Z,19.53
2023-05-19T17:29:47.767Z,19.44
2023-05-19T17:31:49.748Z,19.13
2023-05-19T17:33:51.432Z,18.94
2023-05-19T17:35:53.107Z,18.85
2023-05-19T17:37:55.043Z,18.73
2023-05-19T17:39:56.786Z,18.70
2023-05-19T17:41:58.991Z,18.69
2023-05-19T17:44:00.865Z,18.71
2023-05-19T17:46:03.080Z,18.60
2023-05-19T17:48:05.256Z,18.52
2023-05-19T17:50:07.561Z,18.34
2023-05-19T17:52:09.878Z,18.32
2023-05-19T17:54:11.932Z,18.17
2023-05-19T17:56:14.118Z,18.16
2023-05-19T17:58:16.449Z,18.06
2023-05-19T18:00:18.952Z,17.96
2023-05-19T18:02:20.789Z,17.77
2023-05-19T18:04:22.468Z,17.66
2023-05-19T18:06:25.498Z,17.51
2023-05-19T18:08:28.587Z,17.44
2023-05-19T18:10:34.053Z,17.30
2023-05-19T18:12:35.975Z,17.15
2023-05-19T18:14:37.696Z,17.06
2023-05-19T18:16:39.424Z,16.83
2023-05-19T18:18:43.531Z,16.74
2023-05-19T18:20:45.648Z,16.58
2023-05-19T18:22:50.072Z,16.61
2023-05-19T18:24:52.284Z,16.66
2023-05-19T18:26:54.154Z,16.57
2023-05-19T18:28:56.864Z,16.49
2023-05-19T18:31:03.909Z,16.41
2023-05-19T18:33:07.168Z,16.41
2023-05-19T18:35:09.361Z,16.27
2023-05-19T18:37:11.211Z,16.17
2023-05-19T18:39:12.942Z,16.55
2023-05-19T18:41:14.820Z,16.46
2023-05-19T18:43:17.020Z,16.33
2023-05-19T18:45:18.766Z,16.19
2023-05-19T18:47:22.665Z,16.20
2023-05-19T18:49:25.038Z,16.06
2023-05-19T18:54:25.611Z,15.76
2023-05-19T18:56:33.291Z,15.68
2023-05-19T18:58:37.139Z,15.58
2023-05-19T19:00:38.990Z,15.58
2023-05-19T19:02:40.761Z,15.47
2023-05-19T19:04:42.848Z,15.50
2023-05-19T19:06:44.484Z,15.51
2023-05-19T19:08:46.948Z,15.46
2023-05-19T19:10:51.603Z,15.26
2023-05-19T19:12:53.271Z,15.03
2023-05-19T19:14:54.888Z,14.89
2023-05-19T19:16:56.475Z,14.88
2023-05-19T19:18:58.226Z,14.95
2023-05-19T19:21:01.378Z,14.84
2023-05-19T19:23:06.508Z,14.77
2023-05-19T19:25:08.709Z,14.75
2023-05-19T19:27:10.649Z,14.48
2023-05-19T19:29:12.209Z,14.57
2023-05-19T19:31:13.802Z,14.58
2023-05-19T19:33:15.908Z,14.60
2023-05-19T19:35:17.670Z,14.56
2023-05-19T19:37:19.480Z,14.45
2023-05-19T19:39:21.109Z,14.52
2023-05-19T19:41:22.692Z,14.47
2023-05-19T19:43:24.380Z,14.45
2023-05-19T19:45:25.934Z,14.47
2023-05-19T19:47:27.509Z,14.35
2023-05-19T19:49:29.064Z,14.34
2023-05-19T19:51:31.650Z,14.23
2023-05-19T19:53:33.245Z,14.27
2023-05-19T19:55:34.868Z,14.25
2023-05-19T19:57:36.804Z,14.13
2023-05-19T19:59:38.365Z,14.01
2023-05-19T20:01:39.970Z,13.76
2023-05-19T20:03:42.205Z,13.63
2023-05-19T20:05:43.904Z,13.65
2023-05-19T20:07:45.525Z,13.54
2023-05-19T20:09:47.755Z,13.45
2023-05-19T20:11:49.361Z,13.43
2023-05-19T20:13:51.549Z,13.43
2023-05-19T20:15:53.164Z,13.47
2023-05-19T20:17:54.899Z,13.41
2023-05-19T20:19:56.742Z,13.43
2023-05-19T20:21:58.327Z,13.52
2023-05-19T20:24:00.391Z,13.47
2023-05-19T20:26:10.768Z,13.47
2023-05-19T20:28:13.839Z,13.45
2023-05-19T20:30:15.648Z,13.38
2023-05-19T20:32:17.241Z,13.42
2023-05-19T20:34:21.832Z,13.35
2023-05-19T20:36:24.970Z,13.43
2023-05-19T20:38:26.655Z,13.40
2023-05-19T20:40:29.686Z,13.37
2023-05-19T20:42:31.351Z,13.38
2023-05-19T20:44:32.967Z,13.29
2023-05-19T20:46:34.603Z,13.21
2023-05-19T20:48:36.709Z,13.23
2023-05-19T20:50:39.368Z,13.12
2023-05-19T20:52:41.180Z,13.23
2023-05-19T20:54:43.082Z,13.17
2023-05-19T20:56:44.615Z,13.12
2023-05-19T20:58:46.253Z,13.03
2023-05-19T21:00:53.298Z,13.05
2023-05-19T21:02:55.167Z,12.91
2023-05-19T21:04:56.836Z,12.94
2023-05-19T21:06:59.048Z,12.89
2023-05-19T21:09:03.627Z,12.98
2023-05-19T21:11:05.252Z,12.92
2023-05-19T21:13:06.820Z,12.91
2023-05-19T21:15:09.244Z,12.90
2023-05-19T21:17:11.018Z,12.86
2023-05-19T21:19:12.845Z,12.81
2023-05-19T21:21:14.797Z,12.81
2023-05-19T21:23:16.390Z,12.80
2023-05-19T21:25:18.404Z,12.74
2023-05-19T21:27:20.150Z,12.73
2023-05-19T21:29:21.710Z,12.69
2023-05-19T21:31:23.412Z,12.76
2023-05-19T21:33:25.170Z,12.68
2023-05-19T21:35:26.839Z,12.65
2023-05-19T21:37:28.438Z,12.59
2023-05-19T21:39:30.060Z,12.57
2023-05-19T21:41:32.386Z,12.55
2023-05-19T21:43:33.885Z,12.53
2023-05-19T21:45:35.447Z,12.48
2023-05-19T21:47:37.019Z,12.48
2023-05-19T21:49:40.142Z,12.55
2023-05-19T21:51:41.767Z,12.57
2023-05-19T21:53:43.325Z,12.60
2023-05-19T21:55:44.916Z,12.56
2023-05-19T21:57:46.542Z,12.59
2023-05-19T21:59:48.245Z,12.53
2023-05-19T22:01:50.291Z,12.53
2023-05-19T22:03:52.961Z,12.56
2023-05-19T22:05:55.214Z,12.58
2023-05-19T22:07:56.798Z,12.54
2023-05-19T22:09:58.430Z,12.56
2023-05-19T22:11:59.956Z,12.48
2023-05-19T22:14:01.774Z,12.51
2023-05-19T22:16:04.657Z,12.48
2023-05-19T22:18:06.761Z,12.47
2023-05-19T22:20:09.438Z,12.41
2023-05-19T22:22:14.086Z,12.52
2023-05-19T22:24:18.394Z,12.48
2023-05-19T22:26:20.094Z,12.48
2023-05-19T22:28:21.776Z,12.47
2023-05-19T22:30:23.581Z,12.47
2023-05-19T22:32:25.778Z,12.40
2023-05-19T22:34:27.816Z,12.39
2023-05-19T22:36:29.978Z,12.39
2023-05-19T22:38:31.555Z,12.36
2023-05-19T22:40:33.492Z,12.35
2023-05-19T22:42:35.263Z,12.40
2023-05-19T22:44:36.802Z,12.39
2023-05-19T22:46:38.510Z,12.39
2023-05-19T22:48:40.132Z,12.39
2023-05-19T22:50:41.842Z,12.35
2023-05-19T22:52:43.392Z,12.44
2023-05-19T22:54:44.931Z,12.38
2023-05-19T22:56:48.626Z,12.34
2023-05-19T22:58:50.417Z,12.31
2023-05-19T23:00:52.197Z,12.30
2023-05-19T23:02:53.936Z,12.26
2023-05-19T23:04:56.002Z,12.28
2023-05-19T23:06:57.539Z,12.30
2023-05-19T23:09:03.598Z,12.25
2023-05-19T23:11:05.363Z,12.21
2023-05-19T23:13:08.133Z,12.12
2023-05-19T23:15:10.911Z,12.05
2023-05-19T23:17:12.518Z,11.92
2023-05-19T23:19:14.564Z,11.93
2023-05-19T23:21:16.413Z,11.92
2023-05-19T23:23:17.945Z,11.91
2023-05-19T23:25:19.868Z,11.91
2023-05-19T23:27:21.425Z,11.89
2023-05-19T23:29:23.611Z,11.88
2023-05-19T23:31:25.228Z,11.92
2023-05-19T23:33:26.876Z,11.95
2023-05-19T23:35:28.451Z,11.81
2023-05-19T23:37:29.981Z,11.77
2023-05-19T23:39:31.589Z,11.80
2023-05-19T23:41:33.330Z,11.77
2023-05-19T23:43:34.913Z,11.71
2023-05-19T23:45:36.493Z,11.73
2023-05-19T23:47:38.183Z,11.75
2023-05-19T23:49:39.793Z,11.73
2023-05-19T23:51:41.382Z,11.67
2023-05-19T23:53:42.917Z,11.69
2023-05-19T23:55:44.559Z,11.68
2023-05-19T23:57:46.126Z,11.73
2023-05-19T23:59:47.906Z,11.76
